createdAt,value
2018-12-16T00:01:42.323Z,49.77
2018-12-16T00:04:18.676Z,51.73
2018-12-16T00:07:02.271Z,57.73
2018-12-16T00:09:34.993Z,45.10
2018-12-16T00:12:16.772Z,59.30
2018-12-16T00:14:48.940Z,47.37
2018-12-16T00:17:30.601Z,49.40
2018-12-16T00:20:02.691Z,51.23
2018-12-16T00:22:56.736Z,50.27
2018-12-16T00:25:29.099Z,47.63
2018-12-16T00:41:21.938Z,46.97
2018-12-16T00:43:53.976Z,54.47
2018-12-16T00:46:39.063Z,49.47
2018-12-16T00:49:10.746Z,47.07
2018-12-16T00:51:53.614Z,51.80
2018-12-16T00:54:25.535Z,57.00
2018-12-16T00:57:06.606Z,47.83
2018-12-16T00:59:38.384Z,51.97
2018-12-16T01:02:40.430Z,56.33
2018-12-16T01:05:12.927Z,57.70
2018-12-16T01:07:58.347Z,50.43
2018-12-16T01:10:30.247Z,51.30
2018-12-16T01:13:11.399Z,51.93
2018-12-16T01:15:43.184Z,51.07
2018-12-16T01:18:28.037Z,56.97
2018-12-16T01:20:59.780Z,50.23
2018-12-16T01:23:41.024Z,56.43
2018-12-16T01:26:12.619Z,53.40
2018-12-16T01:29:00.357Z,51.43
2018-12-16T01:31:32.194Z,57.40
2018-12-16T01:34:13.400Z,55.63
2018-12-16T01:36:45.333Z,57.40
2018-12-16T01:39:26.800Z,52.80
2018-12-16T01:41:58.309Z,58.50
2018-12-16T01:44:43.440Z,54.20
2018-12-16T01:47:15.138Z,52.33
2018-12-16T01:50:09.076Z,59.33
2018-12-16T01:52:40.832Z,59.00
2018-12-16T01:55:25.788Z,57.63
2018-12-16T01:57:58.292Z,55.57
2018-12-16T02:00:39.452Z,51.33
2018-12-16T02:03:11.727Z,59.33
2018-12-16T02:19:24.924Z,52.13
2018-12-16T02:21:56.550Z,57.57
2018-12-16T02:24:41.612Z,53.43
2018-12-16T02:27:13.438Z,57.33
2018-12-16T02:29:54.848Z,52.90
2018-12-16T02:32:26.669Z,53.17
2018-12-16T02:35:08.064Z,54.97
2018-12-16T02:37:39.492Z,59.07
2018-12-16T02:40:20.816Z,53.83
2018-12-16T02:42:52.484Z,58.13
2018-12-16T02:58:35.832Z,55.90
2018-12-16T03:01:07.681Z,59.37
2018-12-16T03:03:48.927Z,57.27
2018-12-16T03:06:20.518Z,61.57
2018-12-16T03:09:06.848Z,63.00
2018-12-16T03:11:39.456Z,63.80
2018-12-16T03:14:24.233Z,63.03
2018-12-16T03:16:55.734Z,58.33
2018-12-16T03:19:40.441Z,61.37
2018-12-16T03:22:12.203Z,59.70
2018-12-16T04:16:59.496Z,76.33
2018-12-16T04:19:30.960Z,61.10
2018-12-16T04:22:11.966Z,58.20
2018-12-16T04:24:43.361Z,61.87
2018-12-16T04:27:33.999Z,63.80
2018-12-16T04:30:06.177Z,55.83
2018-12-16T04:32:51.744Z,58.43
2018-12-16T04:35:23.234Z,52.07
2018-12-16T04:38:04.389Z,56.17
2018-12-16T04:40:35.818Z,55.37
2018-12-16T04:43:20.366Z,52.50
2018-12-16T04:45:51.828Z,64.63
2018-12-16T04:48:39.370Z,54.23
2018-12-16T04:51:10.811Z,56.43
2018-12-16T04:53:52.467Z,53.30
2018-12-16T04:56:23.918Z,54.40
2018-12-16T04:59:08.488Z,52.33
2018-12-16T05:01:40.006Z,57.57
2018-12-16T05:04:21.807Z,51.27
2018-12-16T05:06:53.321Z,50.87
2018-12-16T05:09:40.843Z,48.27
2018-12-16T05:12:12.287Z,52.93
2018-12-16T05:28:09.487Z,50.53
2018-12-16T05:30:40.878Z,43.40
2018-12-16T05:33:25.549Z,52.07
2018-12-16T05:35:57.034Z,48.13
2018-12-16T05:38:41.691Z,48.17
2018-12-16T05:41:13.182Z,47.83
2018-12-16T05:43:54.356Z,47.47
2018-12-16T05:46:25.699Z,42.73
2018-12-16T05:49:06.797Z,48.13
2018-12-16T05:51:38.194Z,49.27
2018-12-16T05:54:22.856Z,52.57
2018-12-16T05:56:54.350Z,51.80
2018-12-16T05:59:35.463Z,53.77
2018-12-16T06:02:06.883Z,43.53
2018-12-16T06:04:47.968Z,47.27
2018-12-16T06:07:19.460Z,49.43
2018-12-16T06:10:00.588Z,46.43
2018-12-16T06:12:32.040Z,45.23
2018-12-16T06:15:13.206Z,48.53
2018-12-16T06:17:44.604Z,46.83
2018-12-16T06:20:25.634Z,47.73
2018-12-16T06:22:57.021Z,44.87
2018-12-16T06:25:38.208Z,51.33
2018-12-16T06:28:09.729Z,41.97
2018-12-16T06:30:57.296Z,43.80
2018-12-16T06:33:28.681Z,39.87
2018-12-16T06:36:13.224Z,44.43
2018-12-16T06:38:44.900Z,45.60
2018-12-16T06:41:29.557Z,42.43
2018-12-16T06:44:01.616Z,46.83
2018-12-16T06:46:42.859Z,44.73
2018-12-16T06:49:14.361Z,44.93
2018-12-16T06:51:58.988Z,48.70
2018-12-16T06:54:31.043Z,42.53
2018-12-16T06:57:12.187Z,42.63
2018-12-16T06:59:43.679Z,39.77
2018-12-16T07:02:24.828Z,41.93
2018-12-16T07:04:56.919Z,45.13
2018-12-16T07:07:41.453Z,40.07
2018-12-16T07:10:12.951Z,43.80
2018-12-16T07:12:54.050Z,45.97
2018-12-16T07:15:25.522Z,37.73
2018-12-16T07:18:13.049Z,46.43
2018-12-16T07:20:44.601Z,45.60
2018-12-16T07:23:32.430Z,42.67
2018-12-16T07:26:03.935Z,39.33
2018-12-16T07:28:45.240Z,51.63
2018-12-16T07:31:16.631Z,50.37
2018-12-16T07:33:57.646Z,47.53
2018-12-16T07:36:29.071Z,44.60
2018-12-16T07:39:16.952Z,40.70
2018-12-16T07:41:48.457Z,46.60
2018-12-16T07:44:29.574Z,43.63
2018-12-16T07:47:01.035Z,46.17
2018-12-16T07:49:42.207Z,44.53
2018-12-16T07:52:13.814Z,50.07
2018-12-16T07:55:10.991Z,40.93
2018-12-16T07:57:42.495Z,44.80
2018-12-16T08:00:27.159Z,46.43
2018-12-16T08:05:40.458Z,45.23
2018-12-16T08:08:11.924Z,44.97
2018-12-16T08:11:02.611Z,44.27
2018-12-16T08:13:34.216Z,42.80
2018-12-16T08:16:15.299Z,52.30
2018-12-16T08:18:46.772Z,46.80
2018-12-16T08:34:32.684Z,48.40
2018-12-16T08:37:04.285Z,40.90
2018-12-16T08:39:51.965Z,47.97
2018-12-16T08:42:23.461Z,46.47
2018-12-16T08:45:08.984Z,45.37
2018-12-16T08:47:40.470Z,41.80
2018-12-16T08:50:25.095Z,49.50
2018-12-16T08:52:56.601Z,43.93
2018-12-16T09:08:49.194Z,40.10
2018-12-16T09:11:20.746Z,41.30
2018-12-16T09:14:01.852Z,40.23
2018-12-16T09:16:33.275Z,44.63
2018-12-16T09:19:26.802Z,47.60
2018-12-16T09:21:58.206Z,44.50
2018-12-16T09:24:39.447Z,39.17
2018-12-16T09:27:10.835Z,48.70
2018-12-16T09:29:52.419Z,51.50
2018-12-16T09:32:25.001Z,41.90
2018-12-16T09:35:06.497Z,45.37
2018-12-16T09:37:38.948Z,43.30
2018-12-16T09:40:20.122Z,37.40
2018-12-16T09:42:51.539Z,45.67
2018-12-16T09:45:33.062Z,39.30
2018-12-16T09:48:04.645Z,42.63
2018-12-16T09:50:49.434Z,43.03
2018-12-16T09:53:21.098Z,42.20
2018-12-16T09:56:02.264Z,50.87
2018-12-16T09:58:33.935Z,38.33
2018-12-16T10:01:18.772Z,44.53
2018-12-16T10:03:50.593Z,40.87
2018-12-16T10:06:35.351Z,37.73
2018-12-16T10:09:09.617Z,41.93
2018-12-16T10:24:54.526Z,39.20
2018-12-16T10:27:26.646Z,39.93
2018-12-16T10:30:10.033Z,41.07
2018-12-16T10:32:41.573Z,42.13
2018-12-16T10:35:26.396Z,37.97
2018-12-16T10:37:58.143Z,40.30
2018-12-16T10:40:39.850Z,40.13
2018-12-16T10:43:12.130Z,39.30
2018-12-16T10:45:53.489Z,40.13
2018-12-16T10:48:25.374Z,42.63
2018-12-16T10:51:06.662Z,40.30
2018-12-16T10:53:38.603Z,37.53
2018-12-16T10:56:23.464Z,41.63
2018-12-16T10:58:55.178Z,37.77
2018-12-16T11:01:39.718Z,36.87
2018-12-16T11:04:11.437Z,40.60
2018-12-16T11:06:53.364Z,36.73
2018-12-16T11:09:25.148Z,36.67
2018-12-16T11:12:22.740Z,36.50
2018-12-16T11:14:54.271Z,36.10
2018-12-16T11:17:35.517Z,34.37
2018-12-16T11:20:07.465Z,39.03
2018-12-16T11:22:49.032Z,33.50
2018-12-16T11:25:20.570Z,34.47
2018-12-16T11:28:05.325Z,34.03
2018-12-16T11:30:37.054Z,37.00
2018-12-16T11:33:18.481Z,34.93
2018-12-16T11:35:50.009Z,36.77
2018-12-16T11:38:31.826Z,34.83
2018-12-16T11:41:03.431Z,31.50
2018-12-16T11:43:44.639Z,35.70
2018-12-16T11:46:16.273Z,40.90
2018-12-16T11:48:57.511Z,32.27
2018-12-16T11:51:29.584Z,36.43
2018-12-16T11:54:10.875Z,41.10
2018-12-16T11:56:42.306Z,38.53
2018-12-16T11:59:26.939Z,34.37
2018-12-16T12:01:58.426Z,34.93
2018-12-16T12:04:45.071Z,37.40
2018-12-16T12:07:16.565Z,42.40
2018-12-16T12:10:01.451Z,39.93
2018-12-16T12:12:32.887Z,35.07
2018-12-16T12:15:15.006Z,36.60
2018-12-16T12:17:47.042Z,39.97
2018-12-16T12:20:28.391Z,39.57
2018-12-16T12:23:00.205Z,40.93
2018-12-16T12:25:44.912Z,42.00
2018-12-16T12:28:16.674Z,43.37
2018-12-16T12:30:59.479Z,42.13
2018-12-16T12:33:31.106Z,35.37
2018-12-16T12:36:18.749Z,36.13
2018-12-16T12:38:50.265Z,36.37
2018-12-16T12:41:41.713Z,41.30
2018-12-16T12:44:13.377Z,37.93
2018-12-16T12:46:54.925Z,35.33
2018-12-16T12:49:26.592Z,43.23
2018-12-16T12:52:11.253Z,44.40
2018-12-16T12:54:42.919Z,40.07
2018-12-16T12:57:25.060Z,38.50
2018-12-16T12:59:56.694Z,34.90
2018-12-16T13:02:38.201Z,36.77
2018-12-16T13:05:09.831Z,37.97
2018-12-16T13:07:54.579Z,39.70
2018-12-16T13:10:26.339Z,35.07
2018-12-16T13:13:08.457Z,36.43
2018-12-16T13:15:40.496Z,34.73
2018-12-16T13:18:22.035Z,41.97
2018-12-16T13:20:53.617Z,36.53
2018-12-16T13:23:34.929Z,48.07
2018-12-16T13:26:07.697Z,49.77
2018-12-16T13:28:54.358Z,36.53
2018-12-16T13:31:26.036Z,41.03
2018-12-16T13:34:07.288Z,36.57
2018-12-16T13:36:39.459Z,37.00
2018-12-16T13:39:20.676Z,38.30
2018-12-16T13:41:52.683Z,40.13
2018-12-16T13:44:34.488Z,38.20
2018-12-16T13:47:06.676Z,40.33
2018-12-16T14:16:50.045Z,37.90
2018-12-16T14:19:22.545Z,45.63
2018-12-16T14:22:16.205Z,39.10
2018-12-16T14:24:48.329Z,46.37
2018-12-16T14:27:41.960Z,43.80
2018-12-16T14:30:14.058Z,45.77
2018-12-16T14:46:18.480Z,60.37
2018-12-16T14:48:50.377Z,44.73
2018-12-16T15:04:55.184Z,46.77
2018-12-16T15:07:27.572Z,44.90
2018-12-16T15:23:46.841Z,44.63
2018-12-16T15:26:19.015Z,44.40
2018-12-16T15:29:00.691Z,40.83
2018-12-16T15:31:32.948Z,41.77
2018-12-16T15:34:14.657Z,42.00
2018-12-16T15:36:46.519Z,40.67
2018-12-16T15:39:27.925Z,51.60
2018-12-16T15:41:59.767Z,43.57
2018-12-16T15:44:41.665Z,43.67
2018-12-16T15:47:13.524Z,42.73
2018-12-16T16:16:34.136Z,40.97
2018-12-16T16:19:06.300Z,36.43
2018-12-16T16:35:02.827Z,46.83
2018-12-16T16:37:35.471Z,44.27
2018-12-16T16:40:21.093Z,36.43
2018-12-16T16:42:53.777Z,47.10
2018-12-16T16:45:39.185Z,41.40
2018-12-16T16:48:10.700Z,41.93
2018-12-16T16:50:51.966Z,43.97
2018-12-16T16:53:24.118Z,38.80
2018-12-16T16:56:06.312Z,39.70
2018-12-16T16:58:38.388Z,42.57
2018-12-16T17:01:20.002Z,67.43
2018-12-16T17:03:51.625Z,42.87
2018-12-16T17:06:37.026Z,48.67
2018-12-16T17:09:10.004Z,42.50
2018-12-16T17:11:54.974Z,39.40
2018-12-16T17:14:27.820Z,39.90
2018-12-16T17:30:20.072Z,43.70
2018-12-16T17:32:52.045Z,41.70
2018-12-16T17:35:33.666Z,42.13
2018-12-16T17:38:05.475Z,45.60
2018-12-16T17:40:48.723Z,42.80
2018-12-16T17:43:20.600Z,47.57
2018-12-16T17:46:02.626Z,50.33
2018-12-16T17:48:34.474Z,46.43
2018-12-16T18:04:22.759Z,47.47
2018-12-16T18:06:54.889Z,47.27
2018-12-16T18:09:36.340Z,41.83
2018-12-16T18:12:08.728Z,44.37
2018-12-16T18:14:50.819Z,44.37
2018-12-16T18:17:23.148Z,42.93
2018-12-16T18:20:06.485Z,48.87
2018-12-16T18:22:38.784Z,42.40
2018-12-16T18:25:23.667Z,44.07
2018-12-16T18:27:55.452Z,52.00
2018-12-16T18:30:46.879Z,45.87
2018-12-16T18:33:18.866Z,46.60
2018-12-16T18:36:00.871Z,40.77
2018-12-16T18:38:33.220Z,44.40
2018-12-16T18:41:18.124Z,50.60
2018-12-16T18:43:49.979Z,46.23
2018-12-16T18:46:31.930Z,45.60
2018-12-16T18:49:03.523Z,44.23
2018-12-16T18:51:45.775Z,50.80
2018-12-16T18:54:18.143Z,41.87
2018-12-16T18:57:06.960Z,50.00
2018-12-16T18:59:35.041Z,47.57
2018-12-16T19:02:16.633Z,47.80
2018-12-16T19:04:48.408Z,42.80
2018-12-16T19:07:29.966Z,42.90
2018-12-16T19:10:02.114Z,47.97
2018-12-16T19:12:48.510Z,44.53
2018-12-16T19:15:21.517Z,50.30
2018-12-16T19:18:09.974Z,45.97
2018-12-16T19:20:41.998Z,47.93
2018-12-16T19:23:27.286Z,41.93
2018-12-16T19:26:00.264Z,49.43
2018-12-16T19:28:45.664Z,52.73
2018-12-16T19:31:18.800Z,63.47
2018-12-16T19:34:07.184Z,47.80
2018-12-16T19:36:39.213Z,49.90
2018-12-16T19:39:20.856Z,47.80
2018-12-16T19:41:53.442Z,53.57
2018-12-16T19:44:35.749Z,42.70
2018-12-16T19:47:08.717Z,43.27
2018-12-16T19:49:50.645Z,53.73
2018-12-16T19:52:22.710Z,47.13
2018-12-16T19:55:10.982Z,49.80
2018-12-16T19:57:43.472Z,50.53
2018-12-16T20:00:29.548Z,48.70
2018-12-16T20:03:01.864Z,49.13
2018-12-16T20:05:55.310Z,45.23
2018-12-16T20:08:29.981Z,42.23
2018-12-16T20:11:18.353Z,43.53
2018-12-16T20:13:51.000Z,44.03
2018-12-16T20:29:49.857Z,47.80
2018-12-16T20:32:22.097Z,42.83
2018-12-16T20:35:10.031Z,45.73
2018-12-16T20:37:43.546Z,43.17
2018-12-16T20:40:29.356Z,68.43
2018-12-16T20:43:02.518Z,48.27
2018-12-16T20:45:47.829Z,42.37
2018-12-16T20:48:19.725Z,44.57
2018-12-16T20:51:05.101Z,40.77
2018-12-16T20:53:37.857Z,43.60
2018-12-16T20:56:23.077Z,40.57
2018-12-16T20:58:55.713Z,42.10
2018-12-16T21:01:37.478Z,43.30
2018-12-16T21:04:09.943Z,41.50
2018-12-16T21:06:51.501Z,35.60
2018-12-16T21:09:24.105Z,37.93
2018-12-16T21:12:14.392Z,40.57
2018-12-16T21:14:51.664Z,44.63
2018-12-16T21:17:44.577Z,46.40
2018-12-16T21:20:16.880Z,38.47
2018-12-16T21:23:03.387Z,36.53
2018-12-16T21:25:35.184Z,50.07
2018-12-16T21:28:22.365Z,51.03
2018-12-16T21:30:54.628Z,46.03
2018-12-16T21:33:35.999Z,47.57
2018-12-16T21:36:08.192Z,46.80
2018-12-16T21:38:49.706Z,36.00
2018-12-16T21:41:21.744Z,37.33
2018-12-16T21:44:07.235Z,36.43
2018-12-16T21:46:39.016Z,43.23
2018-12-16T21:49:21.174Z,37.47
2018-12-16T21:51:52.844Z,43.27
2018-12-16T21:54:34.569Z,39.57
2018-12-16T21:57:06.461Z,42.73
2018-12-16T21:59:54.001Z,35.13
2018-12-16T22:02:26.152Z,38.77
2018-12-16T22:05:15.663Z,44.50
2018-12-16T22:07:48.132Z,41.37
2018-12-16T22:10:29.704Z,44.27
2018-12-16T22:13:01.556Z,37.13
2018-12-16T22:15:43.038Z,39.23
2018-12-16T22:18:14.640Z,37.93
2018-12-16T22:20:59.726Z,38.93
2018-12-16T22:23:32.099Z,39.00
2018-12-16T22:26:17.457Z,36.73
2018-12-16T22:28:49.408Z,39.83
2018-12-16T22:31:31.012Z,36.90
2018-12-16T22:34:03.048Z,36.63
2018-12-16T22:36:47.873Z,40.97
2018-12-16T22:39:19.721Z,36.33
2018-12-16T22:42:04.580Z,38.53
2018-12-16T22:44:36.447Z,38.60
2018-12-16T22:47:17.826Z,44.93
2018-12-16T22:49:49.653Z,36.13
2018-12-16T22:52:31.169Z,38.40
2018-12-16T22:55:02.942Z,35.17
2018-12-16T22:57:49.101Z,38.80
2018-12-16T23:00:21.111Z,38.17
2018-12-16T23:03:12.404Z,39.73
2018-12-16T23:05:44.874Z,37.60
2018-12-16T23:08:26.273Z,42.47
2018-12-16T23:10:57.978Z,35.40
2018-12-16T23:13:39.673Z,37.80
2018-12-16T23:16:11.687Z,40.03
2018-12-16T23:18:56.857Z,38.50
2018-12-16T23:21:29.050Z,37.20
2018-12-16T23:24:13.837Z,42.73
2018-12-16T23:26:45.834Z,43.60
2018-12-16T23:29:33.746Z,37.50
2018-12-16T23:32:05.505Z,39.53
2018-12-16T23:34:51.637Z,36.80
2018-12-16T23:37:23.314Z,37.80
2018-12-16T23:40:08.633Z,43.13
2018-12-16T23:42:40.431Z,40.10
2018-12-16T23:45:21.880Z,39.73
2018-12-16T23:47:53.510Z,37.80
2018-12-16T23:50:35.339Z,40.77
2018-12-16T23:53:09.200Z,42.13
2018-12-16T23:55:50.826Z,43.80
2018-12-16T23:58:22.753Z,40.23
